sensor_id;sensor_type;location;lat;lon;timestamp;temperature;humidity
975;DHT22;6115;49.296;10.602;2022-07-23T00:00:18;21.80;58.00
975;DHT22;6115;49.296;10.602;2022-07-23T00:05:18;21.80;58.80
975;DHT22;6115;49.296;10.602;2022-07-23T00:10:19;21.80;58.70
975;DHT22;6115;49.296;10.602;2022-07-23T00:15:20;21.80;58.30
975;DHT22;6115;49.296;10.602;2022-07-23T00:20:20;21.90;58.10
975;DHT22;6115;49.296;10.602;2022-07-23T00:25:24;21.90;58.30
975;DHT22;6115;49.296;10.602;2022-07-23T00:30:26;21.90;58.70
975;DHT22;6115;49.296;10.602;2022-07-23T00:35:30;21.80;58.90
975;DHT22;6115;49.296;10.602;2022-07-23T00:40:31;21.80;59.80
975;DHT22;6115;49.296;10.602;2022-07-23T00:45:32;21.70;59.80
975;DHT22;6115;49.296;10.602;2022-07-23T00:50:32;21.70;59.70
975;DHT22;6115;49.296;10.602;2022-07-23T00:55:33;21.60;59.80
975;DHT22;6115;49.296;10.602;2022-07-23T01:00:34;21.80;59.70
975;DHT22;6115;49.296;10.602;2022-07-23T01:05:34;21.80;59.50
975;DHT22;6115;49.296;10.602;2022-07-23T01:10:35;21.70;60.30
975;DHT22;6115;49.296;10.602;2022-07-23T01:15:37;21.60;59.50
975;DHT22;6115;49.296;10.602;2022-07-23T01:20:37;21.60;59.10
975;DHT22;6115;49.296;10.602;2022-07-23T01:25:47;21.70;57.80
975;DHT22;6115;49.296;10.602;2022-07-23T01:30:48;21.90;56.80
975;DHT22;6115;49.296;10.602;2022-07-23T01:35:49;21.90;55.70
975;DHT22;6115;49.296;10.602;2022-07-23T01:40:49;22.00;55.30
975;DHT22;6115;49.296;10.602;2022-07-23T01:45:50;22.10;55.30
975;DHT22;6115;49.296;10.602;2022-07-23T01:50:50;22.20;55.60
975;DHT22;6115;49.296;10.602;2022-07-23T01:55:51;22.10;56.70
975;DHT22;6115;49.296;10.602;2022-07-23T02:00:52;22.10;56.40
975;DHT22;6115;49.296;10.602;2022-07-23T02:05:53;22.00;55.40
975;DHT22;6115;49.296;10.602;2022-07-23T02:10:54;22.10;55.00
975;DHT22;6115;49.296;10.602;2022-07-23T02:15:54;22.20;54.20
975;DHT22;6115;49.296;10.602;2022-07-23T02:20:55;22.30;53.30
975;DHT22;6115;49.296;10.602;2022-07-23T02:25:56;22.40;52.20
975;DHT22;6115;49.296;10.602;2022-07-23T02:30:56;22.60;51.70
975;DHT22;6115;49.296;10.602;2022-07-23T02:35:57;22.70;51.30
975;DHT22;6115;49.296;10.602;2022-07-23T02:40:57;22.80;50.70
975;DHT22;6115;49.296;10.602;2022-07-23T02:45:58;22.80;50.20
975;DHT22;6115;49.296;10.602;2022-07-23T02:50:59;22.90;49.60
975;DHT22;6115;49.296;10.602;2022-07-23T02:55:59;22.90;49.30
975;DHT22;6115;49.296;10.602;2022-07-23T03:01:00;22.90;49.20
975;DHT22;6115;49.296;10.602;2022-07-23T03:06:01;22.90;48.70
975;DHT22;6115;49.296;10.602;2022-07-23T03:11:01;22.90;48.50
975;DHT22;6115;49.296;10.602;2022-07-23T03:16:02;22.90;48.40
975;DHT22;6115;49.296;10.602;2022-07-23T03:21:02;22.90;48.70
975;DHT22;6115;49.296;10.602;2022-07-23T03:26:03;22.80;48.30
975;DHT22;6115;49.296;10.602;2022-07-23T03:31:04;22.80;48.90
975;DHT22;6115;49.296;10.602;2022-07-23T03:36:04;22.70;48.50
975;DHT22;6115;49.296;10.602;2022-07-23T03:41:05;22.60;48.60
975;DHT22;6115;49.296;10.602;2022-07-23T03:46:05;22.60;48.50
975;DHT22;6115;49.296;10.602;2022-07-23T03:51:06;22.60;48.70
975;DHT22;6115;49.296;10.602;2022-07-23T03:56:08;22.60;48.60
975;DHT22;6115;49.296;10.602;2022-07-23T04:01:08;22.50;48.70
975;DHT22;6115;49.296;10.602;2022-07-23T04:06:09;22.50;48.90
975;DHT22;6115;49.296;10.602;2022-07-23T04:11:09;22.50;49.10
975;DHT22;6115;49.296;10.602;2022-07-23T04:16:10;22.40;49.30
975;DHT22;6115;49.296;10.602;2022-07-23T04:21:10;22.40;49.20
975;DHT22;6115;49.296;10.602;2022-07-23T04:26:11;22.40;49.20
975;DHT22;6115;49.296;10.602;2022-07-23T04:31:12;22.40;49.30
975;DHT22;6115;49.296;10.602;2022-07-23T04:36:12;22.40;49.50
975;DHT22;6115;49.296;10.602;2022-07-23T04:41:13;22.40;49.70
975;DHT22;6115;49.296;10.602;2022-07-23T04:46:13;22.40;49.60
975;DHT22;6115;49.296;10.602;2022-07-23T04:51:14;22.40;49.80
975;DHT22;6115;49.296;10.602;2022-07-23T04:56:15;22.40;50.00
975;DHT22;6115;49.296;10.602;2022-07-23T05:01:15;22.40;50.10
975;DHT22;6115;49.296;10.602;2022-07-23T05:06:16;22.30;50.20
975;DHT22;6115;49.296;10.602;2022-07-23T05:11:17;22.40;50.40
975;DHT22;6115;49.296;10.602;2022-07-23T05:16:17;22.50;50.40
975;DHT22;6115;49.296;10.602;2022-07-23T05:21:18;22.50;50.10
975;DHT22;6115;49.296;10.602;2022-07-23T05:26:18;22.70;50.10
975;DHT22;6115;49.296;10.602;2022-07-23T05:31:19;22.80;49.90
975;DHT22;6115;49.296;10.602;2022-07-23T05:36:19;22.90;49.70
975;DHT22;6115;49.296;10.602;2022-07-23T05:41:20;22.90;50.00
975;DHT22;6115;49.296;10.602;2022-07-23T05:46:21;22.90;52.30
975;DHT22;6115;49.296;10.602;2022-07-23T05:51:22;22.90;51.10
975;DHT22;6115;49.296;10.602;2022-07-23T05:56:23;22.90;50.90
975;DHT22;6115;49.296;10.602;2022-07-23T06:01:23;22.90;50.70
975;DHT22;6115;49.296;10.602;2022-07-23T06:06:24;23.00;50.50
975;DHT22;6115;49.296;10.602;2022-07-23T06:11:25;23.20;50.90
975;DHT22;6115;49.296;10.602;2022-07-23T06:16:25;23.40;50.20
975;DHT22;6115;49.296;10.602;2022-07-23T06:21:26;23.70;49.30
975;DHT22;6115;49.296;10.602;2022-07-23T06:26:26;24.00;48.80
975;DHT22;6115;49.296;10.602;2022-07-23T06:31:27;24.30;48.20
975;DHT22;6115;49.296;10.602;2022-07-23T06:36:27;24.60;47.50
975;DHT22;6115;49.296;10.602;2022-07-23T06:41:28;24.80;46.80
975;DHT22;6115;49.296;10.602;2022-07-23T06:46:28;24.80;46.10
975;DHT22;6115;49.296;10.602;2022-07-23T06:51:29;24.60;47.00
975;DHT22;6115;49.296;10.602;2022-07-23T06:56:30;24.60;46.90
975;DHT22;6115;49.296;10.602;2022-07-23T07:01:30;24.50;46.60
975;DHT22;6115;49.296;10.602;2022-07-23T07:06:31;24.40;47.10
975;DHT22;6115;49.296;10.602;2022-07-23T07:11:32;24.30;47.30
975;DHT22;6115;49.296;10.602;2022-07-23T07:16:32;24.10;48.10
975;DHT22;6115;49.296;10.602;2022-07-23T07:21:33;24.10;48.40
975;DHT22;6115;49.296;10.602;2022-07-23T07:26:34;24.20;48.00
975;DHT22;6115;49.296;10.602;2022-07-23T07:31:34;24.10;48.50
975;DHT22;6115;49.296;10.602;2022-07-23T07:36:35;24.10;48.90
975;DHT22;6115;49.296;10.602;2022-07-23T07:41:37;24.10;49.50
975;DHT22;6115;49.296;10.602;2022-07-23T07:46:38;24.30;49.10
975;DHT22;6115;49.296;10.602;2022-07-23T07:51:38;24.50;48.60
975;DHT22;6115;49.296;10.602;2022-07-23T07:56:39;24.30;49.60
975;DHT22;6115;49.296;10.602;2022-07-23T08:01:40;24.20;49.30
975;DHT22;6115;49.296;10.602;2022-07-23T08:06:40;24.20;49.00
975;DHT22;6115;49.296;10.602;2022-07-23T08:11:41;24.00;48.90
975;DHT22;6115;49.296;10.602;2022-07-23T08:16:42;23.90;49.10
975;DHT22;6115;49.296;10.602;2022-07-23T08:21:42;23.70;50.20
975;DHT22;6115;49.296;10.602;2022-07-23T08:26:43;22.60;55.80
975;DHT22;6115;49.296;10.602;2022-07-23T08:31:43;21.60;62.20
975;DHT22;6115;49.296;10.602;2022-07-23T08:36:45;20.80;68.00
975;DHT22;6115;49.296;10.602;2022-07-23T08:41:46;20.40;69.30
975;DHT22;6115;49.296;10.602;2022-07-23T08:46:48;20.10;73.20
975;DHT22;6115;49.296;10.602;2022-07-23T08:51:49;19.90;74.10
975;DHT22;6115;49.296;10.602;2022-07-23T08:56:50;19.60;73.80
975;DHT22;6115;49.296;10.602;2022-07-23T09:01:50;19.10;75.00
975;DHT22;6115;49.296;10.602;2022-07-23T09:06:51;18.60;77.70
975;DHT22;6115;49.296;10.602;2022-07-23T09:12:09;18.30;78.80
975;DHT22;6115;49.296;10.602;2022-07-23T09:17:14;18.20;79.80
975;DHT22;6115;49.296;10.602;2022-07-23T09:22:26;18.40;81.00
975;DHT22;6115;49.296;10.602;2022-07-23T09:27:46;18.60;81.50
975;DHT22;6115;49.296;10.602;2022-07-23T09:38:04;18.80;82.10
975;DHT22;6115;49.296;10.602;2022-07-23T09:43:04;18.80;81.60
975;DHT22;6115;49.296;10.602;2022-07-23T09:48:15;18.90;82.00
975;DHT22;6115;49.296;10.602;2022-07-23T09:53:26;19.00;82.20
975;DHT22;6115;49.296;10.602;2022-07-23T09:58:26;19.20;82.00
975;DHT22;6115;49.296;10.602;2022-07-23T10:03:27;19.50;82.00
975;DHT22;6115;49.296;10.602;2022-07-23T10:08:28;19.60;81.40
975;DHT22;6115;49.296;10.602;2022-07-23T10:13:30;20.00;81.80
975;DHT22;6115;49.296;10.602;2022-07-23T10:18:34;19.90;80.30
975;DHT22;6115;49.296;10.602;2022-07-23T10:23:41;20.00;80.20
975;DHT22;6115;49.296;10.602;2022-07-23T10:34:19;20.10;79.20
975;DHT22;6115;49.296;10.602;2022-07-23T10:39:29;20.30;77.60
975;DHT22;6115;49.296;10.602;2022-07-23T10:44:38;20.80;79.60
975;DHT22;6115;49.296;10.602;2022-07-23T10:49:39;21.10;76.60
975;DHT22;6115;49.296;10.602;2022-07-23T10:54:44;21.30;75.80
975;DHT22;6115;49.296;10.602;2022-07-23T11:00:09;21.50;76.00
975;DHT22;6115;49.296;10.602;2022-07-23T11:05:21;21.60;72.80
975;DHT22;6115;49.296;10.602;2022-07-23T11:10:42;21.70;73.10
975;DHT22;6115;49.296;10.602;2022-07-23T11:16:17;22.10;75.10
975;DHT22;6115;49.296;10.602;2022-07-23T11:31:58;23.10;64.60
975;DHT22;6115;49.296;10.602;2022-07-23T11:37:00;23.30;63.60
975;DHT22;6115;49.296;10.602;2022-07-23T11:42:02;23.60;60.30
975;DHT22;6115;49.296;10.602;2022-07-23T11:47:09;23.50;57.60
975;DHT22;6115;49.296;10.602;2022-07-23T11:52:12;23.70;55.10
975;DHT22;6115;49.296;10.602;2022-07-23T11:57:13;24.40;55.40
975;DHT22;6115;49.296;10.602;2022-07-23T12:02:14;24.90;54.90
975;DHT22;6115;49.296;10.602;2022-07-23T12:07:34;25.10;51.40
975;DHT22;6115;49.296;10.602;2022-07-23T12:12:36;25.10;51.50
975;DHT22;6115;49.296;10.602;2022-07-23T12:17:39;25.50;52.30
975;DHT22;6115;49.296;10.602;2022-07-23T12:22:46;25.60;50.80
975;DHT22;6115;49.296;10.602;2022-07-23T12:28:04;25.60;51.90
975;DHT22;6115;49.296;10.602;2022-07-23T12:33:07;25.60;50.00
975;DHT22;6115;49.296;10.602;2022-07-23T12:38:19;26.20;46.90
975;DHT22;6115;49.296;10.602;2022-07-23T12:43:28;26.40;47.30
975;DHT22;6115;49.296;10.602;2022-07-23T12:48:30;27.10;46.30
975;DHT22;6115;49.296;10.602;2022-07-23T12:53:47;27.40;45.00
975;DHT22;6115;49.296;10.602;2022-07-23T12:58:58;27.50;44.90
975;DHT22;6115;49.296;10.602;2022-07-23T13:04:04;27.70;44.90
975;DHT22;6115;49.296;10.602;2022-07-23T13:09:08;27.80;46.80
975;DHT22;6115;49.296;10.602;2022-07-23T13:14:09;28.80;44.00
975;DHT22;6115;49.296;10.602;2022-07-23T13:19:10;29.00;43.30
975;DHT22;6115;49.296;10.602;2022-07-23T13:24:12;28.60;44.10
975;DHT22;6115;49.296;10.602;2022-07-23T13:29:12;29.10;42.00
975;DHT22;6115;49.296;10.602;2022-07-23T13:34:13;29.10;42.70
975;DHT22;6115;49.296;10.602;2022-07-23T13:39:14;28.50;41.70
975;DHT22;6115;49.296;10.602;2022-07-23T13:44:14;28.60;42.60
975;DHT22;6115;49.296;10.602;2022-07-23T13:49:15;28.70;42.60
975;DHT22;6115;49.296;10.602;2022-07-23T13:54:15;28.70;41.60
975;DHT22;6115;49.296;10.602;2022-07-23T13:59:16;28.80;41.70
975;DHT22;6115;49.296;10.602;2022-07-23T14:04:17;28.60;42.50
975;DHT22;6115;49.296;10.602;2022-07-23T14:09:17;28.70;41.80
975;DHT22;6115;49.296;10.602;2022-07-23T14:14:18;28.60;42.50
975;DHT22;6115;49.296;10.602;2022-07-23T14:19:18;28.70;41.80
975;DHT22;6115;49.296;10.602;2022-07-23T14:24:19;28.70;42.50
975;DHT22;6115;49.296;10.602;2022-07-23T14:29:19;28.40;42.40
975;DHT22;6115;49.296;10.602;2022-07-23T14:34:20;28.30;42.50
975;DHT22;6115;49.296;10.602;2022-07-23T14:39:20;29.00;40.20
975;DHT22;6115;49.296;10.602;2022-07-23T14:44:21;30.70;36.60
975;DHT22;6115;49.296;10.602;2022-07-23T14:49:22;30.80;34.10
975;DHT22;6115;49.296;10.602;2022-07-23T14:54:23;29.50;36.90
975;DHT22;6115;49.296;10.602;2022-07-23T14:59:26;29.00;37.90
975;DHT22;6115;49.296;10.602;2022-07-23T15:04:27;28.90;38.50
975;DHT22;6115;49.296;10.602;2022-07-23T15:09:27;29.10;38.00
975;DHT22;6115;49.296;10.602;2022-07-23T15:14:28;29.40;38.20
975;DHT22;6115;49.296;10.602;2022-07-23T15:19:28;29.40;37.40
975;DHT22;6115;49.296;10.602;2022-07-23T15:24:29;29.70;37.10
975;DHT22;6115;49.296;10.602;2022-07-23T15:29:30;30.40;35.20
975;DHT22;6115;49.296;10.602;2022-07-23T15:34:30;29.90;35.50
975;DHT22;6115;49.296;10.602;2022-07-23T15:39:32;29.70;36.10
975;DHT22;6115;49.296;10.602;2022-07-23T15:44:35;29.30;36.70
975;DHT22;6115;49.296;10.602;2022-07-23T15:49:36;28.90;36.80
975;DHT22;6115;49.296;10.602;2022-07-23T15:54:37;29.10;36.70
975;DHT22;6115;49.296;10.602;2022-07-23T15:59:38;29.20;36.50
975;DHT22;6115;49.296;10.602;2022-07-23T16:04:39;29.20;36.40
975;DHT22;6115;49.296;10.602;2022-07-23T16:09:39;29.30;35.90
975;DHT22;6115;49.296;10.602;2022-07-23T16:14:40;29.20;36.40
975;DHT22;6115;49.296;10.602;2022-07-23T16:19:40;28.90;36.10
975;DHT22;6115;49.296;10.602;2022-07-23T16:24:44;28.90;37.00
975;DHT22;6115;49.296;10.602;2022-07-23T16:29:45;28.70;36.50
975;DHT22;6115;49.296;10.602;2022-07-23T16:34:45;28.40;37.10
975;DHT22;6115;49.296;10.602;2022-07-23T16:39:46;28.30;37.40
975;DHT22;6115;49.296;10.602;2022-07-23T16:44:47;28.50;37.60
975;DHT22;6115;49.296;10.602;2022-07-23T16:49:47;28.60;37.60
975;DHT22;6115;49.296;10.602;2022-07-23T16:54:48;28.60;37.70
975;DHT22;6115;49.296;10.602;2022-07-23T16:59:49;28.10;37.30
975;DHT22;6115;49.296;10.602;2022-07-23T17:04:50;27.70;38.30
975;DHT22;6115;49.296;10.602;2022-07-23T17:09:51;27.50;38.90
975;DHT22;6115;49.296;10.602;2022-07-23T17:14:51;27.40;38.70
975;DHT22;6115;49.296;10.602;2022-07-23T17:19:52;27.40;39.00
975;DHT22;6115;49.296;10.602;2022-07-23T17:24:52;27.40;39.00
975;DHT22;6115;49.296;10.602;2022-07-23T17:29:53;27.50;39.00
975;DHT22;6115;49.296;10.602;2022-07-23T17:34:53;27.50;38.70
975;DHT22;6115;49.296;10.602;2022-07-23T17:39:54;27.50;39.00
975;DHT22;6115;49.296;10.602;2022-07-23T17:44:54;27.40;38.40
975;DHT22;6115;49.296;10.602;2022-07-23T17:49:55;27.20;38.50
975;DHT22;6115;49.296;10.602;2022-07-23T17:54:56;27.20;38.60
975;DHT22;6115;49.296;10.602;2022-07-23T17:59:56;27.10;37.60
975;DHT22;6115;49.296;10.602;2022-07-23T18:04:57;27.00;38.50
975;DHT22;6115;49.296;10.602;2022-07-23T18:09:58;27.00;38.50
975;DHT22;6115;49.296;10.602;2022-07-23T18:14:59;26.70;39.00
975;DHT22;6115;49.296;10.602;2022-07-23T18:19:59;26.60;39.30
975;DHT22;6115;49.296;10.602;2022-07-23T18:25:00;26.60;39.20
975;DHT22;6115;49.296;10.602;2022-07-23T18:30:00;26.50;39.20
975;DHT22;6115;49.296;10.602;2022-07-23T18:35:02;26.40;39.40
975;DHT22;6115;49.296;10.602;2022-07-23T18:40:06;26.40;39.60
975;DHT22;6115;49.296;10.602;2022-07-23T18:45:08;26.40;40.80
975;DHT22;6115;49.296;10.602;2022-07-23T18:50:11;26.30;40.90
975;DHT22;6115;49.296;10.602;2022-07-23T18:55:13;26.10;41.60
975;DHT22;6115;49.296;10.602;2022-07-23T19:00:13;25.90;42.10
975;DHT22;6115;49.296;10.602;2022-07-23T19:05:14;25.80;43.30
975;DHT22;6115;49.296;10.602;2022-07-23T19:10:15;25.60;43.70
975;DHT22;6115;49.296;10.602;2022-07-23T19:15:16;25.30;45.10
975;DHT22;6115;49.296;10.602;2022-07-23T19:20:17;25.10;45.50
975;DHT22;6115;49.296;10.602;2022-07-23T19:25:20;24.90;46.40
975;DHT22;6115;49.296;10.602;2022-07-23T19:30:21;24.70;46.90
975;DHT22;6115;49.296;10.602;2022-07-23T19:35:22;24.40;48.20
975;DHT22;6115;49.296;10.602;2022-07-23T19:40:24;24.30;49.10
975;DHT22;6115;49.296;10.602;2022-07-23T19:45:25;24.00;49.10
975;DHT22;6115;49.296;10.602;2022-07-23T19:50:26;23.80;50.10
975;DHT22;6115;49.296;10.602;2022-07-23T19:55:28;23.70;51.00
975;DHT22;6115;49.296;10.602;2022-07-23T20:00:31;23.40;51.50
975;DHT22;6115;49.296;10.602;2022-07-23T20:05:31;23.10;51.30
975;DHT22;6115;49.296;10.602;2022-07-23T20:10:32;22.90;52.50
975;DHT22;6115;49.296;10.602;2022-07-23T20:15:33;22.90;52.50
975;DHT22;6115;49.296;10.602;2022-07-23T20:20:33;22.80;52.40
975;DHT22;6115;49.296;10.602;2022-07-23T20:25:34;22.70;53.50
975;DHT22;6115;49.296;10.602;2022-07-23T20:30:35;22.60;53.70
975;DHT22;6115;49.296;10.602;2022-07-23T20:35:35;22.40;53.70
975;DHT22;6115;49.296;10.602;2022-07-23T20:40:36;22.20;54.00
975;DHT22;6115;49.296;10.602;2022-07-23T20:45:38;21.90;54.60
975;DHT22;6115;49.296;10.602;2022-07-23T20:50:38;21.70;55.00
975;DHT22;6115;49.296;10.602;2022-07-23T20:55:39;21.70;56.00
975;DHT22;6115;49.296;10.602;2022-07-23T21:00:40;21.80;56.10
975;DHT22;6115;49.296;10.602;2022-07-23T21:05:41;21.80;56.10
975;DHT22;6115;49.296;10.602;2022-07-23T21:10:42;21.60;56.60
975;DHT22;6115;49.296;10.602;2022-07-23T21:15:43;21.60;56.90
975;DHT22;6115;49.296;10.602;2022-07-23T21:20:44;21.60;57.00
975;DHT22;6115;49.296;10.602;2022-07-23T21:26:04;21.60;57.20
975;DHT22;6115;49.296;10.602;2022-07-23T21:31:05;21.40;57.70
975;DHT22;6115;49.296;10.602;2022-07-23T21:36:06;21.10;58.80
975;DHT22;6115;49.296;10.602;2022-07-23T21:41:06;21.10;59.10
975;DHT22;6115;49.296;10.602;2022-07-23T21:46:07;21.10;57.30
975;DHT22;6115;49.296;10.602;2022-07-23T21:51:08;21.10;57.40
975;DHT22;6115;49.296;10.602;2022-07-23T21:56:08;21.10;55.70
975;DHT22;6115;49.296;10.602;2022-07-23T22:01:09;21.20;55.60
975;DHT22;6115;49.296;10.602;2022-07-23T22:06:10;21.20;55.60
975;DHT22;6115;49.296;10.602;2022-07-23T22:11:10;21.20;55.60
975;DHT22;6115;49.296;10.602;2022-07-23T22:16:11;21.20;55.60
975;DHT22;6115;49.296;10.602;2022-07-23T22:21:11;21.10;55.90
975;DHT22;6115;49.296;10.602;2022-07-23T22:26:12;21.00;56.00
975;DHT22;6115;49.296;10.602;2022-07-23T22:31:12;21.00;56.10
975;DHT22;6115;49.296;10.602;2022-07-23T22:36:13;21.00;56.00
975;DHT22;6115;49.296;10.602;2022-07-23T22:41:14;21.00;56.40
975;DHT22;6115;49.296;10.602;2022-07-23T22:46:14;20.90;57.50
975;DHT22;6115;49.296;10.602;2022-07-23T22:51:15;20.60;58.90
975;DHT22;6115;49.296;10.602;2022-07-23T22:56:15;20.40;60.50
975;DHT22;6115;49.296;10.602;2022-07-23T23:01:16;20.40;61.00
975;DHT22;6115;49.296;10.602;2022-07-23T23:06:17;20.50;60.60
975;DHT22;6115;49.296;10.602;2022-07-23T23:11:17;20.50;60.20
975;DHT22;6115;49.296;10.602;2022-07-23T23:16:18;20.50;59.50
975;DHT22;6115;49.296;10.602;2022-07-23T23:21:18;20.50;59.00
975;DHT22;6115;49.296;10.602;2022-07-23T23:26:19;20.40;58.20
975;DHT22;6115;49.296;10.602;2022-07-23T23:31:19;20.40;57.60
975;DHT22;6115;49.296;10.602;2022-07-23T23:36:20;20.50;57.10
975;DHT22;6115;49.296;10.602;2022-07-23T23:41:20;20.50;56.10
975;DHT22;6115;49.296;10.602;2022-07-23T23:46:23;20.60;56.40
975;DHT22;6115;49.296;10.602;2022-07-23T23:51:24;20.60;56.10
975;DHT22;6115;49.296;10.602;2022-07-23T23:56:25;20.60;56.20
